Time;durP1;ratioP1;P1;durP2;ratioP2;P2;SDS_P1;SDS_P2;PMS_P1;PMS_P2;Temp;Humidity;BMP_temperature;BMP_pressure;BME280_temperature;BME280_humidity;BME280_pressure;Samples;Min_cycle;Max_cycle;Signal;HPM_P1;HPM_P2
2023/04/29 00:01:21;;;;;;;10.97;8.03;;;13.20;1.00;;;;;;4939684;28;20477;-79
2023/04/29 00:03:49;;;;;;;10.40;8.60;;;13.20;1.00;;;;;;4937084;28;20465;-80
2023/04/29 00:06:16;;;;;;;13.13;7.93;;;13.30;1.00;;;;;;4935710;28;20491;-78
2023/04/29 00:08:45;;;;;;;11.30;8.67;;;13.40;1.00;;;;;;4935678;28;20457;-78
2023/04/29 00:11:12;;;;;;;11.83;8.60;;;13.40;1.00;;;;;;4931719;28;20549;-80
2023/04/29 00:13:40;;;;;;;10.93;8.33;;;13.30;1.00;;;;;;4935723;28;20473;-79
2023/04/29 00:16:09;;;;;;;13.40;9.30;;;13.20;1.00;;;;;;4929783;28;20477;-79
2023/04/29 00:18:36;;;;;;;12.70;8.37;;;13.20;1.00;;;;;;4936323;28;20515;-80
2023/04/29 00:21:05;;;;;;;11.40;8.60;;;13.20;1.00;;;;;;4938600;28;20488;-80
2023/04/29 00:23:33;;;;;;;10.93;8.63;;;13.20;1.00;;;;;;4934440;28;20473;-79
2023/04/29 00:26:00;;;;;;;15.20;8.40;;;13.20;1.00;;;;;;4938198;28;21241;-79
2023/04/29 00:28:27;;;;;;;14.40;8.97;;;13.20;1.00;;;;;;4935603;28;20438;-79
2023/04/29 00:30:56;;;;;;;14.00;8.60;;;13.10;1.00;;;;;;4939209;28;21349;-78
2023/04/29 00:33:23;;;;;;;12.47;8.87;;;13.10;1.00;;;;;;4942073;28;20913;-79
2023/04/29 00:35:50;;;;;;;11.87;7.80;;;13.10;1.00;;;;;;4936123;28;20500;-80
2023/04/29 00:38:18;;;;;;;12.60;8.77;;;13.10;1.00;;;;;;4942684;28;20521;-79
2023/04/29 00:40:45;;;;;;;10.50;8.37;;;13.20;1.00;;;;;;4933336;28;20698;-78
2023/04/29 00:43:12;;;;;;;10.37;8.20;;;13.20;1.00;;;;;;4936035;28;21251;-78
2023/04/29 00:45:39;;;;;;;12.73;8.50;;;13.30;1.00;;;;;;4940473;28;20473;-78
2023/04/29 00:48:09;;;;;;;11.00;9.00;;;13.30;1.00;;;;;;4936464;28;20556;-78
2023/04/29 00:50:36;;;;;;;11.20;8.77;;;13.30;1.00;;;;;;4936998;28;20564;-79
2023/04/29 00:53:03;;;;;;;10.00;7.70;;;13.40;1.00;;;;;;4930837;28;21138;-78
2023/04/29 00:55:31;;;;;;;10.40;8.10;;;13.30;1.00;;;;;;4925900;28;20467;-77
2023/04/29 00:57:58;;;;;;;11.53;7.60;;;13.40;1.00;;;;;;4934967;28;20487;-78
2023/04/29 01:00:26;;;;;;;11.97;8.53;;;13.40;1.00;;;;;;4938114;28;20580;-79
2023/04/29 01:02:55;;;;;;;10.80;8.33;;;13.40;1.00;;;;;;5001410;23;20515;-81
2023/04/29 01:05:24;;;;;;;11.00;7.83;;;13.50;1.00;;;;;;5025614;28;20561;-81
2023/04/29 01:08:02;;;;;;;11.30;8.20;;;13.60;1.00;;;;;;5031655;28;20564;-81
2023/04/29 01:10:37;;;;;;;12.20;8.50;;;13.60;1.00;;;;;;5029452;28;20529;-80
2023/04/29 01:13:09;;;;;;;10.97;8.03;;;13.70;1.00;;;;;;5019972;28;20469;-80
2023/04/29 01:15:44;;;;;;;11.60;8.00;;;13.70;1.00;;;;;;5032670;28;20463;-80
2023/04/29 01:18:18;;;;;;;12.53;7.80;;;13.70;1.00;;;;;;5028352;28;20476;-80
2023/04/29 01:20:48;;;;;;;11.70;8.33;;;13.60;1.00;;;;;;5027777;28;20461;-81
2023/04/29 01:23:16;;;;;;;15.97;9.20;;;13.40;1.00;;;;;;5029042;28;20458;-81
2023/04/29 01:25:45;;;;;;;13.00;8.43;;;13.20;1.00;;;;;;5029142;28;20536;-80
2023/04/29 01:28:21;;;;;;;11.83;9.70;;;13.00;1.00;;;;;;5031567;28;20936;-80
2023/04/29 01:30:55;;;;;;;14.03;9.60;;;12.90;1.00;;;;;;5023478;28;20602;-80
2023/04/29 01:33:29;;;;;;;13.53;9.73;;;12.80;1.00;;;;;;5029636;28;20549;-80
2023/04/29 01:36:08;;;;;;;14.50;10.10;;;12.60;1.00;;;;;;5029589;28;20531;-80
2023/04/29 01:38:41;;;;;;;15.60;10.73;;;12.40;1.00;;;;;;5029595;28;20603;-79
2023/04/29 01:41:16;;;;;;;18.33;10.67;;;12.30;1.00;;;;;;5025094;28;20497;-80
2023/04/29 01:43:47;;;;;;;13.67;9.97;;;12.30;1.00;;;;;;5025408;28;20970;-80
2023/04/29 01:46:18;;;;;;;13.10;9.77;;;12.40;1.00;;;;;;5032727;28;20485;-80
2023/04/29 01:48:45;;;;;;;16.57;11.30;;;12.30;1.00;;;;;;5012076;28;21015;-80
2023/04/29 01:51:12;;;;;;;14.50;10.93;;;12.30;1.00;;;;;;5015370;28;20502;-80
2023/04/29 01:53:40;;;;;;;14.80;10.77;;;12.20;1.00;;;;;;5029279;28;20555;-80
2023/04/29 01:56:08;;;;;;;13.40;10.37;;;12.20;1.00;;;;;;5025477;28;20465;-80
2023/04/29 01:58:36;;;;;;;14.53;10.90;;;12.10;1.00;;;;;;5033875;28;20548;-81
2023/04/29 02:01:09;;;;;;;16.63;11.40;;;12.10;1.00;;;;;;5034533;28;20491;-80
2023/04/29 02:03:36;;;;;;;13.80;11.37;;;12.10;1.00;;;;;;5030385;28;20468;-80
2023/04/29 02:06:03;;;;;;;14.10;11.70;;;12.00;1.00;;;;;;5024350;28;20481;-81
2023/04/29 02:08:30;;;;;;;16.27;11.83;;;12.00;1.00;;;;;;5020761;28;20890;-80
2023/04/29 02:10:59;;;;;;;16.17;12.67;;;12.00;1.00;;;;;;5029018;28;20633;-80
2023/04/29 02:13:26;;;;;;;17.73;12.40;;;12.00;1.00;;;;;;5029785;28;20934;-79
2023/04/29 02:15:54;;;;;;;15.13;12.87;;;12.00;1.00;;;;;;5035140;28;20476;-79
2023/04/29 02:18:21;;;;;;;13.80;11.47;;;12.00;1.00;;;;;;5032720;28;20484;-80
2023/04/29 02:20:50;;;;;;;16.07;12.03;;;11.90;1.00;;;;;;5033707;28;20543;-81
2023/04/29 02:23:17;;;;;;;14.23;12.47;;;11.80;1.00;;;;;;5035821;28;20463;-80
2023/04/29 02:25:44;;;;;;;14.60;12.60;;;11.90;1.00;;;;;;5021453;28;20533;-80
2023/04/29 02:28:11;;;;;;;14.80;11.80;;;11.80;1.00;;;;;;5031944;28;21003;-80
2023/04/29 02:30:39;;;;;;;16.40;12.17;;;11.90;1.00;;;;;;5036818;28;20543;-80
2023/04/29 02:33:07;;;;;;;18.83;12.83;;;11.90;1.00;;;;;;5036660;28;20462;-80
2023/04/29 02:35:35;;;;;;;20.40;14.57;;;11.90;1.00;;;;;;5030224;28;20554;-79
2023/04/29 02:38:02;;;;;;;17.63;14.30;;;11.90;1.00;;;;;;5019965;28;20454;-80
2023/04/29 02:40:29;;;;;;;21.70;19.40;;;11.90;1.00;;;;;;5026649;28;20563;-80
2023/04/29 02:42:56;;;;;;;17.43;13.20;;;11.80;1.00;;;;;;5022780;28;20609;-79
2023/04/29 02:45:23;;;;;;;16.97;13.50;;;11.80;1.00;;;;;;5020484;28;20481;-80
2023/04/29 02:47:50;;;;;;;17.37;13.40;;;11.80;1.00;;;;;;5033229;28;20876;-79
2023/04/29 02:50:18;;;;;;;18.70;16.67;;;11.90;1.00;;;;;;5027033;28;20468;-79
2023/04/29 02:52:45;;;;;;;18.17;16.17;;;11.80;1.00;;;;;;5025568;28;20503;-80
2023/04/29 02:55:12;;;;;;;17.40;14.30;;;11.80;1.00;;;;;;5028678;28;20527;-80
2023/04/29 02:57:40;;;;;;;16.53;13.70;;;11.80;1.00;;;;;;5021235;28;20523;-81
2023/04/29 03:00:09;;;;;;;17.60;14.70;;;11.70;1.00;;;;;;5030087;28;20519;-81
2023/04/29 03:02:36;;;;;;;18.03;15.63;;;11.70;1.00;;;;;;5025928;28;20463;-81
2023/04/29 03:05:03;;;;;;;17.83;15.37;;;11.70;1.00;;;;;;5030647;28;21028;-80
2023/04/29 03:07:32;;;;;;;17.97;14.83;;;11.70;1.00;;;;;;5029142;28;20479;-80
2023/04/29 03:09:59;;;;;;;17.63;15.33;;;11.60;1.00;;;;;;5031638;28;20499;-81
2023/04/29 03:12:26;;;;;;;19.87;17.13;;;11.60;1.00;;;;;;5028595;28;20456;-80
2023/04/29 03:14:54;;;;;;;18.77;16.70;;;11.60;1.00;;;;;;5033472;28;20463;-80
2023/04/29 03:17:22;;;;;;;19.40;16.77;;;11.60;1.00;;;;;;5031695;28;20459;-80
2023/04/29 03:19:53;;;;;;;17.70;15.80;;;11.70;1.00;;;;;;5027289;28;20436;-80
2023/04/29 03:22:20;;;;;;;17.50;14.80;;;11.70;1.00;;;;;;5025046;28;20474;-80
2023/04/29 03:24:48;;;;;;;17.90;16.00;;;11.70;1.00;;;;;;5032604;28;20900;-80
2023/04/29 03:27:16;;;;;;;17.97;16.07;;;11.70;1.00;;;;;;5029393;28;21204;-80
2023/04/29 03:29:43;;;;;;;19.63;16.30;;;11.70;1.00;;;;;;5032954;28;20482;-80
2023/04/29 03:32:10;;;;;;;20.67;17.30;;;11.70;1.00;;;;;;5032377;28;20478;-80
2023/04/29 03:34:37;;;;;;;18.50;16.50;;;11.80;1.00;;;;;;5028642;28;21886;-80
2023/04/29 03:37:04;;;;;;;18.93;16.93;;;11.80;1.00;;;;;;5029437;28;21360;-79
2023/04/29 03:39:32;;;;;;;19.50;17.30;;;11.80;1.00;;;;;;5024993;28;20837;-81
2023/04/29 03:42:01;;;;;;;20.70;18.43;;;11.90;1.00;;;;;;5024701;28;20528;-80
2023/04/29 03:44:29;;;;;;;21.20;18.40;;;11.90;1.00;;;;;;5028233;28;21284;-81
2023/04/29 03:46:56;;;;;;;22.80;18.07;;;11.90;1.00;;;;;;5033239;28;20452;-80
2023/04/29 03:49:24;;;;;;;20.37;18.30;;;11.90;1.00;;;;;;5022543;28;20465;-81
2023/04/29 03:51:52;;;;;;;18.67;16.30;;;11.90;1.00;;;;;;5027518;28;20461;-80
2023/04/29 03:54:23;;;;;;;19.93;17.30;;;12.00;1.00;;;;;;5023822;28;21243;-80
2023/04/29 03:56:50;;;;;;;21.17;18.87;;;12.10;1.00;;;;;;5026981;28;20480;-80
2023/04/29 03:59:18;;;;;;;21.17;18.97;;;12.10;1.00;;;;;;5016909;28;21104;-79
2023/04/29 04:01:45;;;;;;;21.13;18.17;;;12.00;1.00;;;;;;5022224;28;20512;-80
2023/04/29 04:04:13;;;;;;;24.70;21.73;;;12.00;1.00;;;;;;5020131;28;20488;-79
2023/04/29 04:06:40;;;;;;;21.93;18.40;;;12.00;1.00;;;;;;5021553;28;20545;-80
2023/04/29 04:09:08;;;;;;;23.50;19.10;;;12.10;1.00;;;;;;5026754;28;21394;-80
2023/04/29 04:11:35;;;;;;;20.53;18.23;;;12.10;1.00;;;;;;5022705;28;20510;-80
2023/04/29 04:14:02;;;;;;;24.83;20.70;;;12.10;1.00;;;;;;5029411;28;20443;-80
2023/04/29 04:16:33;;;;;;;21.73;19.37;;;12.20;1.00;;;;;;5035548;28;20526;-79
2023/04/29 04:19:00;;;;;;;22.23;19.93;;;12.20;1.00;;;;;;5033799;28;20526;-80
2023/04/29 04:21:30;;;;;;;22.63;19.77;;;12.20;1.00;;;;;;5032309;28;20465;-80
2023/04/29 04:23:57;;;;;;;24.50;20.47;;;12.30;1.00;;;;;;5034596;28;20472;-78
2023/04/29 04:26:24;;;;;;;25.27;20.93;;;12.30;1.00;;;;;;5032451;28;20453;-79
2023/04/29 04:28:51;;;;;;;22.33;19.93;;;12.30;1.00;;;;;;5036086;28;20471;-79
2023/04/29 04:31:18;;;;;;;26.93;21.97;;;12.30;1.00;;;;;;5032306;28;20464;-79
2023/04/29 04:33:48;;;;;;;23.73;21.33;;;12.30;1.00;;;;;;5031770;28;21352;-79
2023/04/29 04:36:15;;;;;;;23.93;20.13;;;12.30;1.00;;;;;;5031392;28;20479;-78
2023/04/29 04:38:45;;;;;;;23.20;20.50;;;12.40;1.00;;;;;;5031394;28;20447;-79
2023/04/29 04:41:12;;;;;;;23.10;20.63;;;12.40;1.00;;;;;;5030356;28;20449;-82
2023/04/29 04:43:40;;;;;;;25.50;20.83;;;12.50;1.00;;;;;;5025922;28;20509;-83
2023/04/29 04:46:14;;;;;;;23.47;20.40;;;12.60;1.00;;;;;;5023094;28;20454;-81
2023/04/29 04:48:43;;;;;;;22.47;20.17;;;12.60;1.00;;;;;;5005589;28;20554;-81
2023/04/29 04:51:12;;;;;;;25.13;22.47;;;12.70;1.00;;;;;;5019222;28;20465;-81
2023/04/29 04:53:40;;;;;;;26.33;23.50;;;12.60;1.00;;;;;;5005663;28;20903;-83
2023/04/29 04:56:08;;;;;;;23.60;21.10;;;12.60;1.00;;;;;;5023515;28;22000;-83
2023/04/29 04:58:35;;;;;;;23.77;20.93;;;12.70;1.00;;;;;;5022114;28;20495;-83
2023/04/29 05:01:02;;;;;;;24.63;21.37;;;12.70;1.00;;;;;;5017508;28;20513;-82
2023/04/29 05:03:29;;;;;;;25.30;21.00;;;12.70;1.00;;;;;;5018268;28;20501;-82
2023/04/29 05:05:58;;;;;;;25.63;22.40;;;12.80;1.00;;;;;;5025409;28;20503;-81
2023/04/29 05:08:27;;;;;;;27.73;22.40;;;12.80;1.00;;;;;;5024932;28;20560;-82
2023/04/29 05:10:54;;;;;;;27.73;22.87;;;12.80;1.00;;;;;;5019794;28;20481;-82
2023/04/29 05:13:21;;;;;;;24.30;21.57;;;12.80;1.00;;;;;;5018997;28;20519;-83
2023/04/29 05:15:48;;;;;;;24.63;21.43;;;12.80;1.00;;;;;;5028664;28;20463;-82
2023/04/29 05:18:16;;;;;;;28.10;25.03;;;12.80;1.00;;;;;;5019780;28;20493;-81
2023/04/29 05:20:43;;;;;;;28.87;24.40;;;12.90;1.00;;;;;;5031006;28;20876;-80
2023/04/29 05:23:10;;;;;;;27.17;24.10;;;12.90;1.00;;;;;;5016696;28;20449;-81
2023/04/29 05:25:39;;;;;;;27.20;23.07;;;12.90;1.00;;;;;;5029210;28;20453;-80
2023/04/29 05:28:08;;;;;;;29.43;25.90;;;12.90;1.00;;;;;;5027595;28;20476;-79
2023/04/29 05:30:36;;;;;;;29.57;24.77;;;12.90;1.00;;;;;;5036956;28;20488;-79
2023/04/29 05:33:03;;;;;;;31.83;24.47;;;13.00;1.00;;;;;;5033625;28;20468;-79
2023/04/29 05:35:31;;;;;;;28.10;24.77;;;13.00;1.00;;;;;;5033720;28;20464;-79
2023/04/29 05:38:01;;;;;;;28.13;23.80;;;13.10;1.00;;;;;;5030151;28;20477;-79
2023/04/29 05:40:28;;;;;;;28.40;25.23;;;13.10;1.00;;;;;;5016051;28;20463;-80
2023/04/29 05:42:56;;;;;;;30.60;25.67;;;13.10;1.00;;;;;;5027780;28;20489;-80
2023/04/29 05:45:23;;;;;;;29.90;25.90;;;13.10;1.00;;;;;;5034881;28;20449;-80
2023/04/29 05:47:51;;;;;;;30.60;24.70;;;13.10;1.00;;;;;;5031564;28;20826;-79
2023/04/29 05:50:18;;;;;;;28.63;24.47;;;13.10;1.00;;;;;;5036473;28;20515;-80
2023/04/29 05:52:45;;;;;;;32.63;24.60;;;13.10;1.00;;;;;;5030319;28;20454;-80
2023/04/29 05:55:12;;;;;;;31.20;26.40;;;13.10;1.00;;;;;;5028884;28;21015;-79
2023/04/29 05:57:39;;;;;;;28.60;23.77;;;13.20;1.00;;;;;;5031923;28;20466;-79
2023/04/29 06:00:09;;;;;;;30.30;25.33;;;13.10;1.00;;;;;;5024305;28;20457;-80
2023/04/29 06:02:38;;;;;;;28.57;22.57;;;13.20;1.00;;;;;;4993362;28;20978;-80
2023/04/29 06:05:08;;;;;;;29.37;24.33;;;13.20;1.00;;;;;;5014929;28;20484;-80
2023/04/29 06:07:37;;;;;;;31.00;23.23;;;13.20;1.00;;;;;;5011568;28;21377;-80
2023/04/29 06:10:11;;;;;;;30.83;23.33;;;13.20;1.00;;;;;;5014378;28;20470;-81
2023/04/29 06:12:38;;;;;;;31.20;25.40;;;13.30;1.00;;;;;;5011218;28;20481;-79
2023/04/29 06:15:07;;;;;;;28.67;23.97;;;13.20;1.00;;;;;;5017564;28;20460;-80
2023/04/29 06:17:34;;;;;;;30.57;23.97;;;13.20;1.00;;;;;;5008776;28;20516;-80
2023/04/29 06:20:03;;;;;;;30.33;25.57;;;13.30;1.00;;;;;;5007949;28;20425;-81
2023/04/29 06:22:41;;;;;;;30.90;25.50;;;13.20;1.00;;;;;;5016543;28;20540;-81
2023/04/29 06:25:10;;;;;;;30.90;24.37;;;13.30;1.00;;;;;;5017942;28;20461;-82
2023/04/29 06:27:37;;;;;;;28.13;23.13;;;13.30;1.00;;;;;;5010939;28;20879;-81
2023/04/29 06:30:06;;;;;;;26.67;22.80;;;13.40;1.00;;;;;;5015832;28;20949;-81
2023/04/29 06:32:49;;;;;;;29.97;23.63;;;13.40;1.00;;;;;;5015358;28;20981;-80
2023/04/29 06:35:19;;;;;;;29.20;23.10;;;13.40;1.00;;;;;;5002868;28;20458;-78
2023/04/29 06:37:46;;;;;;;30.97;24.50;;;13.30;1.00;;;;;;5004712;28;20468;-80
2023/04/29 06:40:13;;;;;;;30.60;23.20;;;13.30;1.00;;;;;;5010813;28;20494;-80
2023/04/29 06:42:43;;;;;;;30.80;24.27;;;13.30;1.00;;;;;;5023561;28;20994;-82
2023/04/29 06:45:15;;;;;;;26.70;21.37;;;13.40;1.00;;;;;;5032626;28;20505;-80
2023/04/29 06:47:45;;;;;;;29.07;23.83;;;13.40;1.00;;;;;;5034335;28;20434;-78
2023/04/29 06:50:13;;;;;;;27.57;22.90;;;13.40;1.00;;;;;;5028945;28;20465;-79
2023/04/29 06:52:41;;;;;;;25.77;22.10;;;13.40;1.00;;;;;;5028109;28;20464;-80
2023/04/29 06:55:10;;;;;;;29.70;23.10;;;13.40;1.00;;;;;;5009859;28;20449;-80
2023/04/29 06:57:39;;;;;;;25.83;21.70;;;13.50;1.00;;;;;;5031014;28;20991;-80
2023/04/29 07:00:07;;;;;;;28.20;21.57;;;13.40;1.00;;;;;;5030213;28;20493;-80
2023/04/29 07:02:34;;;;;;;30.03;23.13;;;13.50;1.00;;;;;;5012933;28;20480;-79
2023/04/29 07:05:06;;;;;;;25.27;21.00;;;13.50;1.00;;;;;;5025794;28;20927;-80
2023/04/29 07:07:36;;;;;;;27.13;20.17;;;13.40;1.00;;;;;;5017772;28;20491;-79
2023/04/29 07:10:04;;;;;;;25.23;20.00;;;13.30;1.00;;;;;;5027592;28;20461;-79
2023/04/29 07:12:31;;;;;;;27.03;19.50;;;13.30;1.00;;;;;;5029788;28;20943;-80
2023/04/29 07:14:58;;;;;;;24.30;18.40;;;13.20;1.00;;;;;;5033264;28;20468;-80
2023/04/29 07:17:33;;;;;;;22.57;17.50;;;13.20;1.00;;;;;;5032158;28;20461;-80
2023/04/29 07:20:05;;;;;;;24.10;17.73;;;13.10;1.00;;;;;;4999885;28;20510;-81
2023/04/29 07:22:33;;;;;;;22.93;17.77;;;13.10;1.00;;;;;;5029550;28;20555;-80
2023/04/29 07:25:05;;;;;;;26.33;17.50;;;13.10;1.00;;;;;;5024455;28;20549;-81
2023/04/29 07:27:36;;;;;;;25.60;18.17;;;13.10;1.00;;;;;;5010146;28;20496;-80
2023/04/29 07:30:03;;;;;;;20.00;16.50;;;13.10;1.00;;;;;;4994808;28;20989;-81
2023/04/29 07:32:31;;;;;;;22.60;18.33;;;13.10;1.00;;;;;;5011954;28;20485;-79
2023/04/29 07:34:58;;;;;;;22.07;17.00;;;13.00;1.00;;;;;;5031672;28;20461;-81
2023/04/29 07:37:26;;;;;;;25.07;18.63;;;13.00;1.00;;;;;;5031924;28;20499;-81
2023/04/29 07:39:53;;;;;;;21.07;15.80;;;12.90;1.00;;;;;;5032730;28;20522;-79
2023/04/29 07:42:20;;;;;;;21.63;16.30;;;12.90;1.00;;;;;;5028756;28;21038;-79
2023/04/29 07:44:47;;;;;;;20.50;15.70;;;12.90;1.00;;;;;;5029520;28;20453;-80
2023/04/29 07:47:14;;;;;;;23.43;18.30;;;13.00;1.00;;;;;;5028216;28;20492;-79
2023/04/29 07:49:43;;;;;;;24.03;18.27;;;13.00;1.00;;;;;;5033618;28;20459;-79
2023/04/29 07:52:10;;;;;;;23.63;18.30;;;12.90;1.00;;;;;;5029700;28;20574;-79
2023/04/29 07:54:40;;;;;;;24.80;17.40;;;12.90;1.00;;;;;;5031080;28;20560;-80
2023/04/29 07:57:07;;;;;;;22.43;17.43;;;12.90;1.00;;;;;;5032264;28;20468;-79
2023/04/29 07:59:37;;;;;;;23.10;18.93;;;13.00;1.00;;;;;;5022973;28;20536;-81
2023/04/29 08:02:04;;;;;;;19.90;16.57;;;13.10;1.00;;;;;;5020771;28;20988;-80
2023/04/29 08:04:31;;;;;;;23.10;16.50;;;13.10;1.00;;;;;;5030763;28;20467;-80
2023/04/29 08:06:58;;;;;;;19.87;16.20;;;13.10;1.00;;;;;;5009997;28;20464;-81
2023/04/29 08:09:25;;;;;;;16.97;14.30;;;12.90;1.00;;;;;;5027395;28;20492;-79
2023/04/29 08:11:54;;;;;;;18.80;16.20;;;12.90;1.00;;;;;;5031357;28;20505;-80
2023/04/29 08:14:25;;;;;;;19.33;16.87;;;12.90;1.00;;;;;;5029135;28;21073;-80
2023/04/29 08:16:53;;;;;;;18.57;16.07;;;12.90;1.00;;;;;;5031731;28;20468;-80
2023/04/29 08:19:20;;;;;;;17.20;14.60;;;12.90;1.00;;;;;;5031045;28;20479;-81
2023/04/29 08:21:53;;;;;;;18.73;16.60;;;12.90;1.00;;;;;;5034312;28;21281;-81
2023/04/29 08:24:21;;;;;;;19.30;16.13;;;12.90;1.00;;;;;;4995689;28;20555;-79
2023/04/29 08:26:48;;;;;;;17.27;14.63;;;12.80;1.00;;;;;;5015640;28;20931;-79
2023/04/29 08:29:17;;;;;;;17.43;15.07;;;12.80;1.00;;;;;;5012728;28;20987;-79
2023/04/29 08:31:44;;;;;;;16.23;14.23;;;12.80;1.00;;;;;;5030316;28;21190;-80
2023/04/29 08:34:11;;;;;;;18.80;15.47;;;12.80;1.00;;;;;;5032182;28;20464;-81
2023/04/29 08:36:38;;;;;;;18.03;15.50;;;12.60;1.00;;;;;;5035596;28;20947;-79
2023/04/29 08:39:05;;;;;;;17.27;14.67;;;12.50;1.00;;;;;;5025047;28;21067;-78
2023/04/29 08:41:36;;;;;;;18.30;15.83;;;12.50;1.00;;;;;;5033134;28;21152;-82
2023/04/29 08:44:03;;;;;;;17.70;14.53;;;12.40;1.00;;;;;;5028918;28;20462;-80
2023/04/29 08:46:32;;;;;;;18.00;15.80;;;12.40;1.00;;;;;;5029372;28;20496;-80
2023/04/29 08:49:01;;;;;;;18.47;14.97;;;12.40;1.00;;;;;;5020355;28;20485;-79
2023/04/29 08:51:28;;;;;;;17.57;14.83;;;12.40;1.00;;;;;;5031102;28;20491;-79
2023/04/29 08:53:56;;;;;;;21.30;17.30;;;12.50;1.00;;;;;;5033901;28;20578;-80
2023/04/29 08:56:24;;;;;;;17.83;15.27;;;12.50;1.00;;;;;;5033534;28;20472;-80
2023/04/29 08:58:53;;;;;;;19.67;16.43;;;12.50;1.00;;;;;;5024897;28;20473;-80
2023/04/29 09:01:21;;;;;;;20.00;16.73;;;12.40;1.00;;;;;;5031542;28;20452;-80
2023/04/29 09:03:58;;;;;;;19.87;16.40;;;12.40;1.00;;;;;;5033355;28;20471;-80
2023/04/29 09:06:25;;;;;;;20.63;17.83;;;12.50;1.00;;;;;;5033787;28;20489;-80
2023/04/29 09:08:53;;;;;;;20.43;16.80;;;12.50;1.00;;;;;;5035094;28;20510;-79
2023/04/29 09:11:21;;;;;;;21.93;18.93;;;12.40;1.00;;;;;;5029765;28;20463;-80
2023/04/29 09:13:48;;;;;;;20.33;17.03;;;12.50;1.00;;;;;;5019580;28;20463;-79
2023/04/29 09:16:15;;;;;;;22.00;16.87;;;12.40;1.00;;;;;;5014465;28;20905;-80
2023/04/29 09:18:43;;;;;;;23.60;18.00;;;12.40;1.00;;;;;;5028289;28;20472;-79
2023/04/29 09:21:17;;;;;;;26.13;18.57;;;12.30;1.00;;;;;;5034933;28;20495;-79
2023/04/29 09:23:45;;;;;;;28.00;21.37;;;12.20;1.00;;;;;;5034471;28;20440;-80
2023/04/29 09:26:11;;;;;;;26.70;21.00;;;12.10;1.00;;;;;;5034199;28;20514;-80
2023/04/29 09:28:42;;;;;;;30.63;22.10;;;12.00;1.00;;;;;;5010751;28;20467;-80
2023/04/29 09:31:10;;;;;;;30.23;22.47;;;12.00;1.00;;;;;;5036633;28;20986;-79
2023/04/29 09:33:53;;;;;;;30.57;23.30;;;12.00;1.00;;;;;;5034642;28;20459;-79
2023/04/29 09:36:39;;;;;;;31.53;22.70;;;12.10;1.00;;;;;;5027681;28;20558;-79
2023/04/29 09:39:10;;;;;;;29.07;23.27;;;12.10;1.00;;;;;;5031038;28;21286;-80
2023/04/29 09:41:48;;;;;;;30.63;23.30;;;12.10;1.00;;;;;;5035630;28;20459;-80
2023/04/29 09:44:18;;;;;;;28.83;24.33;;;12.10;1.00;;;;;;5036671;28;20490;-80
2023/04/29 09:46:56;;;;;;;28.90;23.43;;;12.10;1.00;;;;;;5035081;28;20457;-80
2023/04/29 09:49:25;;;;;;;32.20;26.07;;;12.20;1.00;;;;;;5034543;28;20464;-80
2023/04/29 09:51:58;;;;;;;28.90;23.30;;;12.20;1.00;;;;;;5034091;28;20479;-80
2023/04/29 09:54:28;;;;;;;30.87;24.97;;;12.20;1.00;;;;;;5024397;28;20466;-80
2023/04/29 09:56:56;;;;;;;39.17;29.97;;;12.20;1.00;;;;;;5030929;28;20476;-79
2023/04/29 09:59:24;;;;;;;33.60;25.90;;;12.10;1.00;;;;;;5034440;28;20468;-80
2023/04/29 10:01:53;;;;;;;32.50;27.10;;;12.20;1.00;;;;;;5032436;28;20469;-79
2023/04/29 10:04:21;;;;;;;32.93;26.17;;;12.20;1.00;;;;;;5030838;28;20598;-79
2023/04/29 10:06:50;;;;;;;37.20;30.27;;;12.20;1.00;;;;;;5035621;28;21350;-79
2023/04/29 10:09:20;;;;;;;37.50;31.17;;;12.20;1.00;;;;;;5028844;28;20500;-80
2023/04/29 10:11:49;;;;;;;39.90;30.50;;;12.20;1.00;;;;;;5019707;28;20480;-81
2023/04/29 10:14:18;;;;;;;38.37;32.10;;;12.20;1.00;;;;;;5034312;28;20465;-79
2023/04/29 10:16:49;;;;;;;43.30;32.70;;;12.20;1.00;;;;;;5032242;28;20962;-80
2023/04/29 10:19:26;;;;;;;45.77;34.07;;;12.30;1.00;;;;;;5017104;28;20952;-80
2023/04/29 10:21:55;;;;;;;42.40;33.77;;;12.30;1.00;;;;;;5030920;28;20977;-80
2023/04/29 10:24:27;;;;;;;40.97;32.90;;;12.30;1.00;;;;;;5033540;28;20562;-80
2023/04/29 10:26:57;;;;;;;46.00;36.40;;;12.40;1.00;;;;;;5037708;28;20544;-78
2023/04/29 10:29:30;;;;;;;45.20;36.43;;;12.30;1.00;;;;;;5036264;28;20500;-80
2023/04/29 10:32:00;;;;;;;46.57;37.00;;;12.30;1.00;;;;;;5037648;28;20472;-79
2023/04/29 10:34:27;;;;;;;48.07;36.53;;;12.30;1.00;;;;;;5026128;28;20464;-80
2023/04/29 10:36:55;;;;;;;43.03;35.27;;;12.30;1.00;;;;;;5038091;28;20465;-80
2023/04/29 10:39:35;;;;;;;45.40;36.87;;;12.40;1.00;;;;;;5023902;28;20495;-80
2023/04/29 10:42:06;;;;;;;47.63;39.07;;;12.50;1.00;;;;;;5036583;28;20957;-79
2023/04/29 10:44:53;;;;;;;44.23;39.30;;;12.60;1.00;;;;;;5014651;28;20511;-80
2023/04/29 10:47:20;;;;;;;45.53;37.23;;;12.70;1.00;;;;;;5032130;28;20436;-80
2023/04/29 10:50:03;;;;;;;44.70;38.90;;;12.70;1.00;;;;;;5033429;28;20491;-79
2023/04/29 10:52:30;;;;;;;44.77;37.90;;;12.80;1.00;;;;;;5036782;28;21066;-81
2023/04/29 10:55:06;;;;;;;42.23;36.90;;;12.90;1.00;;;;;;5031311;28;21106;-81
2023/04/29 10:57:33;;;;;;;40.00;34.47;;;13.00;1.00;;;;;;5030073;28;20899;-81
2023/04/29 11:00:00;;;;;;;36.30;32.23;;;13.00;1.00;;;;;;5029562;28;20461;-81
2023/04/29 11:02:27;;;;;;;37.07;33.13;;;13.00;1.00;;;;;;5031351;28;21224;-80
2023/04/29 11:05:11;;;;;;;36.83;32.73;;;12.80;1.00;;;;;;5021989;28;20528;-80
2023/04/29 11:07:38;;;;;;;37.40;32.70;;;12.80;1.00;;;;;;5025948;28;20543;-80
2023/04/29 11:10:07;;;;;;;36.87;32.07;;;12.80;1.00;;;;;;5029340;28;20545;-80
2023/04/29 11:12:35;;;;;;;34.07;30.47;;;12.80;1.00;;;;;;5021683;28;21797;-80
2023/04/29 11:15:04;;;;;;;33.40;29.40;;;12.90;1.00;;;;;;5023225;28;20472;-80
2023/04/29 11:17:36;;;;;;;33.50;29.93;;;12.90;1.00;;;;;;5006240;28;21267;-81
2023/04/29 11:20:03;;;;;;;33.53;30.00;;;13.10;1.00;;;;;;5022874;28;20639;-81
2023/04/29 11:22:32;;;;;;;34.40;30.70;;;13.30;1.00;;;;;;5027265;28;20497;-80
2023/04/29 11:25:01;;;;;;;31.47;28.17;;;13.60;1.00;;;;;;5028629;28;20544;-79
2023/04/29 11:27:32;;;;;;;30.90;27.67;;;14.10;1.00;;;;;;5033963;28;20470;-81
2023/04/29 11:30:00;;;;;;;30.83;27.60;;;14.70;1.00;;;;;;5031009;28;20458;-80
2023/04/29 11:32:28;;;;;;;26.37;23.50;;;15.20;1.00;;;;;;5026947;28;20465;-80
2023/04/29 11:35:06;;;;;;;29.77;25.47;;;15.30;1.00;;;;;;5033775;28;20453;-80
2023/04/29 11:37:33;;;;;;;25.47;22.73;;;15.20;1.00;;;;;;5033299;28;20471;-80
2023/04/29 11:40:01;;;;;;;27.73;24.73;;;15.10;1.00;;;;;;5031375;28;21095;-80
2023/04/29 11:42:29;;;;;;;25.13;22.63;;;15.00;1.00;;;;;;5030006;28;20492;-81
2023/04/29 11:44:59;;;;;;;25.07;22.47;;;14.90;1.00;;;;;;5031108;28;20453;-80
2023/04/29 11:47:29;;;;;;;27.80;22.73;;;14.90;1.00;;;;;;5032865;28;20429;-80
2023/04/29 11:50:04;;;;;;;27.83;23.80;;;15.30;1.00;;;;;;5031790;28;20994;-81
2023/04/29 11:52:31;;;;;;;24.17;21.70;;;15.80;1.00;;;;;;5031310;28;20585;-80
2023/04/29 11:54:59;;;;;;;21.37;19.07;;;16.00;1.00;;;;;;5030699;28;20981;-80
2023/04/29 11:57:26;;;;;;;23.93;20.93;;;16.10;1.00;;;;;;5028101;28;20899;-80
2023/04/29 11:59:54;;;;;;;23.10;20.63;;;16.30;1.00;;;;;;5029994;28;20517;-80
2023/04/29 12:02:22;;;;;;;21.37;19.20;;;16.30;1.00;;;;;;5021939;28;20481;-79
2023/04/29 12:04:49;;;;;;;21.97;19.73;;;16.30;1.00;;;;;;5024717;28;20976;-79
2023/04/29 12:07:16;;;;;;;19.63;17.53;;;16.30;1.00;;;;;;5030877;28;21031;-80
2023/04/29 12:09:44;;;;;;;20.83;18.07;;;16.10;1.00;;;;;;5029870;28;20561;-80
2023/04/29 12:12:12;;;;;;;19.67;17.77;;;16.00;1.00;;;;;;5033181;28;20942;-80
2023/04/29 12:14:40;;;;;;;21.30;19.00;;;16.00;1.00;;;;;;5032370;28;20507;-80
2023/04/29 12:17:09;;;;;;;19.83;17.30;;;15.90;1.00;;;;;;5033455;28;20473;-80
2023/04/29 12:19:37;;;;;;;20.53;17.33;;;15.80;1.00;;;;;;5026317;28;20453;-80
2023/04/29 12:22:05;;;;;;;19.80;17.33;;;15.80;1.00;;;;;;5026252;28;20550;-80
2023/04/29 12:24:35;;;;;;;19.33;17.37;;;15.80;1.00;;;;;;5028700;28;20913;-80
2023/04/29 12:27:02;;;;;;;19.30;16.93;;;15.70;1.00;;;;;;5034437;28;20828;-80
2023/04/29 12:29:31;;;;;;;17.80;16.03;;;15.40;1.00;;;;;;5035659;28;20486;-80
2023/04/29 12:31:58;;;;;;;18.67;15.97;;;15.20;1.00;;;;;;5034111;28;21007;-80
2023/04/29 12:34:29;;;;;;;16.93;14.77;;;15.20;1.00;;;;;;5033944;28;20461;-79
2023/04/29 12:36:57;;;;;;;18.33;15.33;;;15.20;1.00;;;;;;5040367;28;20454;-80
2023/04/29 12:39:24;;;;;;;27.53;24.60;;;15.20;1.00;;;;;;5024189;28;20457;-81
2023/04/29 12:41:58;;;;;;;17.13;15.33;;;15.50;1.00;;;;;;5032159;28;20571;-81
2023/04/29 12:44:26;;;;;;;16.93;14.60;;;15.80;1.00;;;;;;5036524;28;21171;-80
2023/04/29 12:46:53;;;;;;;20.13;16.40;;;16.10;1.00;;;;;;5032825;28;22249;-80